Time;durP1;ratioP1;P1;durP2;ratioP2;P2;SDS_P1;SDS_P2;PMS_P1;PMS_P2;Temp;Humidity;BMP_temperature;BMP_pressure;BME280_temperature;BME280_humidity;BME280_pressure;Samples;Min_cycle;Max_cycle;Signal;HPM_P1;HPM_P2
2023/12/16 00:02:06;;;;;;;17.73;2.92;;;9.30;99.90;;;;;;6369884;22;20107;-91
2023/12/16 00:04:31;;;;;;;12.77;2.60;;;9.30;99.90;;;;;;6370823;22;19994;-93
2023/12/16 00:06:57;;;;;;;11.65;2.60;;;9.40;99.90;;;;;;6390074;22;20006;-91
2023/12/16 00:09:22;;;;;;;10.45;2.72;;;9.80;99.90;;;;;;6369457;22;19999;-91
2023/12/16 00:11:48;;;;;;;12.90;2.83;;;9.90;99.90;;;;;;6371254;22;20353;-92
2023/12/16 00:14:13;;;;;;;13.98;2.83;;;9.30;99.90;;;;;;6370488;22;20001;-92
2023/12/16 00:16:45;;;;;;;21.95;3.80;;;9.30;99.90;;;;;;6377611;22;20006;-90
2023/12/16 00:19:10;;;;;;;12.10;2.50;;;9.30;99.90;;;;;;6376179;22;20010;-92
2023/12/16 00:21:37;;;;;;;13.38;2.92;;;9.30;99.90;;;;;;6369372;22;20003;-92
2023/12/16 00:24:03;;;;;;;11.82;2.65;;;9.30;99.90;;;;;;6369148;22;19994;-91
2023/12/16 00:26:30;;;;;;;15.43;3.05;;;9.30;99.90;;;;;;6388814;22;19995;-92
2023/12/16 00:28:55;;;;;;;13.48;3.33;;;10.00;99.90;;;;;;6381488;22;20077;-93
2023/12/16 00:31:22;;;;;;;11.20;2.55;;;9.90;99.90;;;;;;6371472;22;20014;-92
2023/12/16 00:33:48;;;;;;;15.45;2.72;;;10.10;99.90;;;;;;6370213;22;20018;-91
2023/12/16 00:36:14;;;;;;;13.10;2.80;;;10.20;99.90;;;;;;6369736;22;20372;-91
2023/12/16 00:38:41;;;;;;;16.90;4.00;;;9.90;99.90;;;;;;6371146;22;20002;-92
2023/12/16 00:41:07;;;;;;;12.98;3.05;;;9.80;99.90;;;;;;6386725;22;19999;-92
2023/12/16 00:43:33;;;;;;;12.00;3.58;;;10.00;99.90;;;;;;6392487;22;20005;-91
2023/12/16 00:45:58;;;;;;;18.33;4.78;;;10.20;99.90;;;;;;6371930;22;20014;-91
2023/12/16 00:48:24;;;;;;;12.40;3.58;;;10.10;99.90;;;;;;6372051;22;20085;-92
2023/12/16 00:50:49;;;;;;;11.63;3.28;;;9.30;99.90;;;;;;6371777;22;20065;-92
2023/12/16 00:53:15;;;;;;;16.60;3.22;;;9.10;99.90;;;;;;6371929;22;20008;-91
2023/12/16 00:55:41;;;;;;;15.02;4.13;;;9.20;99.90;;;;;;6372703;22;20086;-92
2023/12/16 00:58:08;;;;;;;17.73;3.47;;;9.70;99.90;;;;;;6381199;22;20054;-93
2023/12/16 01:00:34;;;;;;;16.50;3.55;;;9.50;99.90;;;;;;6390303;22;20063;-91
2023/12/16 01:03:00;;;;;;;7.10;2.63;;;9.70;99.90;;;;;;6391482;22;20022;-92
2023/12/16 01:05:26;;;;;;;11.88;3.00;;;10.30;99.90;;;;;;6375944;22;19994;-91
2023/12/16 01:07:52;;;;;;;10.85;3.05;;;9.10;99.90;;;;;;6372285;22;20430;-91
2023/12/16 01:10:17;;;;;;;18.20;3.92;;;9.10;99.90;;;;;;6376046;22;20030;-91
2023/12/16 01:12:43;;;;;;;14.57;3.30;;;9.20;99.90;;;;;;6379997;22;19998;-91
2023/12/16 01:15:09;;;;;;;18.67;3.60;;;8.50;99.90;;;;;;6382472;22;20051;-91
2023/12/16 01:17:35;;;;;;;12.65;3.13;;;9.60;99.90;;;;;;6377397;22;20007;-92
2023/12/16 01:20:01;;;;;;;15.93;3.22;;;10.50;99.90;;;;;;6372388;22;20295;-91
2023/12/16 01:22:26;;;;;;;11.43;3.45;;;9.00;99.90;;;;;;6382580;22;20017;-91
2023/12/16 01:24:52;;;;;;;12.70;3.00;;;9.80;99.90;;;;;;6392448;22;20002;-90
2023/12/16 01:27:18;;;;;;;15.00;4.15;;;9.40;99.90;;;;;;6373347;22;20464;-91
2023/12/16 01:29:43;;;;;;;13.30;3.50;;;9.00;99.90;;;;;;6370621;22;20006;-92
2023/12/16 01:32:15;;;;;;;19.75;4.40;;;10.40;99.90;;;;;;6369889;22;20055;-90
2023/12/16 01:34:41;;;;;;;14.10;3.25;;;9.50;99.90;;;;;;6368913;22;20576;-90
2023/12/16 01:37:07;;;;;;;13.45;4.65;;;8.90;99.90;;;;;;6369671;22;20030;-89
2023/12/16 01:39:32;;;;;;;22.17;4.70;;;8.90;99.90;;;;;;6369690;22;20429;-90
2023/12/16 01:42:07;;;;;;;14.88;4.43;;;8.90;99.90;;;;;;6369596;22;20002;-90
2023/12/16 01:44:33;;;;;;;18.10;4.32;;;9.70;99.90;;;;;;6374468;22;20433;-90
2023/12/16 01:46:59;;;;;;;15.77;5.05;;;9.10;99.90;;;;;;6378917;22;20037;-88
2023/12/16 01:49:40;;;;;;;13.18;3.75;;;8.80;99.90;;;;;;6370150;22;20002;-91
2023/12/16 01:52:07;;;;;;;17.02;3.92;;;9.40;99.90;;;;;;6369847;22;20052;-90
2023/12/16 01:54:33;;;;;;;12.38;4.18;;;9.40;99.90;;;;;;6377688;22;20002;-90
2023/12/16 01:57:05;;;;;;;13.10;5.20;;;8.90;99.90;;;;;;6375205;22;20021;-90
2023/12/16 01:59:51;;;;;;;15.57;4.10;;;9.40;99.90;;;;;;6371742;22;19999;-90
2023/12/16 02:02:18;;;;;;;13.13;4.47;;;8.30;99.90;;;;;;6392895;22;20026;-89
2023/12/16 02:04:50;;;;;;;15.82;4.63;;;8.80;99.90;;;;;;6379147;22;20315;-91
2023/12/16 02:07:16;;;;;;;18.80;4.90;;;9.60;99.90;;;;;;6370433;22;20030;-89
2023/12/16 02:09:42;;;;;;;15.48;4.35;;;9.10;99.90;;;;;;6368945;22;20292;-90
2023/12/16 02:12:23;;;;;;;18.55;4.85;;;8.70;99.90;;;;;;6371481;22;20047;-91
2023/12/16 02:14:50;;;;;;;17.60;4.97;;;8.00;99.90;;;;;;6371023;22;20077;-90
2023/12/16 02:17:15;;;;;;;14.25;4.30;;;8.70;99.90;;;;;;6371027;22;19999;-90
2023/12/16 02:19:44;;;;;;;19.55;4.78;;;8.60;99.90;;;;;;6370641;22;20017;-89
2023/12/16 02:22:25;;;;;;;16.75;5.50;;;8.70;99.90;;;;;;6376420;22;19998;-90
2023/12/16 02:24:51;;;;;;;;;;;8.60;99.90;;;;;;6384687;22;20031;-91
2023/12/16 02:27:29;;;;;;;16.38;5.07;;;9.50;99.90;;;;;;6388166;22;19913;-90
2023/12/16 02:29:59;;;;;;;20.17;4.75;;;9.60;99.90;;;;;;6374103;22;20418;-90
2023/12/16 02:32:24;;;;;;;19.60;4.50;;;7.90;99.90;;;;;;6372564;22;20003;-92
2023/12/16 02:34:51;;;;;;;19.25;5.35;;;9.60;99.90;;;;;;6370876;22;20002;-90
2023/12/16 02:37:17;;;;;;;15.38;5.03;;;8.60;99.90;;;;;;6370297;22;20006;-91
2023/12/16 02:39:42;;;;;;;19.20;5.68;;;9.60;99.90;;;;;;6370511;22;20018;-91
2023/12/16 02:42:08;;;;;;;22.65;5.00;;;9.50;99.90;;;;;;6371675;22;20025;-91
2023/12/16 02:44:33;;;;;;;19.60;4.47;;;8.60;99.90;;;;;;6369745;22;19994;-91
2023/12/16 02:46:59;;;;;;;15.73;5.65;;;9.40;99.90;;;;;;6372191;22;20010;-90
2023/12/16 02:49:28;;;;;;;22.02;5.28;;;9.30;99.90;;;;;;6390632;22;19998;-90
2023/12/16 02:51:55;;;;;;;20.20;4.53;;;9.80;99.90;;;;;;6372873;22;19998;-91
2023/12/16 02:54:21;;;;;;;23.23;6.10;;;9.30;99.90;;;;;;6371959;22;20002;-91
2023/12/16 02:56:49;;;;;;;21.25;4.97;;;8.50;99.90;;;;;;6372638;22;20002;-90
2023/12/16 02:59:14;;;;;;;13.52;4.88;;;9.50;99.90;;;;;;6371929;22;20034;-90
2023/12/16 03:01:40;;;;;;;18.33;5.28;;;9.50;99.90;;;;;;6370414;22;20011;-91
2023/12/16 03:04:06;;;;;;;15.00;4.85;;;8.50;99.90;;;;;;6370070;22;19998;-90
2023/12/16 03:06:32;;;;;;;17.63;6.00;;;8.70;99.90;;;;;;6368438;22;20006;-90
2023/12/16 03:08:58;;;;;;;23.70;5.40;;;8.50;99.90;;;;;;6369216;22;20291;-90
2023/12/16 03:11:24;;;;;;;16.42;4.93;;;8.50;99.90;;;;;;6368496;22;20036;-89
2023/12/16 03:13:51;;;;;;;15.93;4.93;;;8.50;99.90;;;;;;6369761;22;20007;-89
2023/12/16 03:16:16;;;;;;;16.90;4.55;;;9.30;99.90;;;;;;6370135;22;20002;-92
2023/12/16 03:18:42;;;;;;;15.18;4.78;;;8.40;99.90;;;;;;6369742;22;20003;-91
2023/12/16 03:21:08;;;;;;;17.33;4.55;;;8.40;99.90;;;;;;6383508;22;19999;-92
2023/12/16 03:23:33;;;;;;;17.20;4.72;;;8.50;99.90;;;;;;6390361;22;20012;-90
2023/12/16 03:25:59;;;;;;;13.32;4.93;;;8.40;99.90;;;;;;6375264;22;20418;-91
2023/12/16 03:28:24;;;;;;;16.13;4.78;;;8.50;99.90;;;;;;6371107;22;20002;-91
2023/12/16 03:30:51;;;;;;;18.67;5.40;;;8.40;99.90;;;;;;6369782;22;19998;-91
2023/12/16 03:33:17;;;;;;;14.88;5.10;;;8.50;99.90;;;;;;6375221;22;19999;-91
2023/12/16 03:35:44;;;;;;;22.55;5.45;;;8.40;99.90;;;;;;6379625;22;19998;-90
2023/12/16 03:38:10;;;;;;;16.33;4.68;;;8.40;99.90;;;;;;6377078;22;20010;-92
2023/12/16 03:40:35;;;;;;;20.35;5.55;;;8.40;99.90;;;;;;6368186;22;20006;-91
2023/12/16 03:43:01;;;;;;;19.38;5.40;;;8.40;99.90;;;;;;6377360;22;20089;-90
2023/12/16 03:45:27;;;;;;;14.25;5.20;;;8.40;99.90;;;;;;6380498;22;20006;-92
2023/12/16 03:47:53;;;;;;;27.17;6.10;;;8.40;99.90;;;;;;6368314;22;20021;-90
2023/12/16 03:50:18;;;;;;;20.77;5.05;;;8.40;99.90;;;;;;6369307;22;20267;-90
2023/12/16 03:52:44;;;;;;;18.00;4.68;;;8.40;99.90;;;;;;6368687;22;20029;-91
2023/12/16 03:55:10;;;;;;;17.35;4.97;;;8.30;99.90;;;;;;6368571;22;20073;-91
2023/12/16 03:57:36;;;;;;;21.30;4.95;;;8.40;99.90;;;;;;6369671;22;20399;-91
2023/12/16 04:00:01;;;;;;;19.15;5.22;;;8.30;99.90;;;;;;6376299;22;20082;-90
2023/12/16 04:02:27;;;;;;;15.90;4.50;;;8.40;99.90;;;;;;6329788;22;1080294;-90
2023/12/16 04:04:53;;;;;;;26.63;5.55;;;8.30;99.90;;;;;;6374162;22;20014;-91
2023/12/16 04:07:20;;;;;;;21.55;5.20;;;8.30;99.90;;;;;;6369436;22;20049;-90
2023/12/16 04:09:47;;;;;;;19.75;5.18;;;8.30;99.90;;;;;;6370174;22;19999;-91
2023/12/16 04:12:13;;;;;;;18.05;5.18;;;8.30;99.90;;;;;;6370981;22;20030;-91
2023/12/16 04:14:39;;;;;;;18.75;5.00;;;8.30;99.90;;;;;;6369940;22;19994;-90
2023/12/16 04:17:05;;;;;;;20.40;4.90;;;8.30;99.90;;;;;;6371039;22;20081;-89
2023/12/16 04:19:31;;;;;;;19.02;5.03;;;8.30;99.90;;;;;;6371619;22;20073;-91
2023/12/16 04:21:56;;;;;;;22.10;5.05;;;8.30;99.90;;;;;;6371009;22;20003;-90
2023/12/16 04:24:22;;;;;;;21.63;6.03;;;8.30;99.90;;;;;;6372658;22;20002;-90
2023/12/16 04:26:50;;;;;;;28.70;6.32;;;8.30;99.90;;;;;;6371442;22;20063;-93
2023/12/16 04:29:15;;;;;;;15.60;5.15;;;8.30;99.90;;;;;;6371697;22;20002;-91
2023/12/16 04:31:41;;;;;;;17.33;4.50;;;8.30;99.90;;;;;;6372791;22;20295;-92
2023/12/16 04:34:07;;;;;;;21.27;5.82;;;8.30;99.90;;;;;;6373696;22;20001;-90
2023/12/16 04:36:34;;;;;;;25.17;5.47;;;8.30;99.90;;;;;;6378873;22;19999;-91
2023/12/16 04:39:07;;;;;;;19.38;4.82;;;8.30;99.90;;;;;;6392348;22;20002;-90
2023/12/16 04:41:34;;;;;;;18.65;4.25;;;8.30;99.90;;;;;;6384256;22;20086;-92
2023/12/16 04:44:00;;;;;;;16.75;5.13;;;8.30;99.90;;;;;;6397451;22;20010;-91
2023/12/16 04:46:28;;;;;;;14.82;4.25;;;8.30;99.90;;;;;;6374989;22;20037;-91
2023/12/16 04:48:54;;;;;;;21.08;5.15;;;8.30;99.90;;;;;;6373038;22;19999;-91
2023/12/16 04:51:22;;;;;;;30.15;5.15;;;8.30;99.90;;;;;;6371099;22;20330;-92
2023/12/16 04:53:48;;;;;;;16.67;4.70;;;8.30;99.90;;;;;;6372523;22;20073;-91
2023/12/16 04:56:13;;;;;;;20.60;4.90;;;8.30;99.90;;;;;;6372861;22;20010;-92
2023/12/16 04:58:40;;;;;;;21.80;4.05;;;8.30;99.90;;;;;;6371065;22;20148;-90
2023/12/16 05:01:05;;;;;;;28.77;5.28;;;8.30;99.90;;;;;;6371486;22;20018;-90
2023/12/16 05:03:32;;;;;;;17.75;4.85;;;8.30;99.90;;;;;;6371791;22;19998;-90
2023/12/16 05:05:58;;;;;;;20.02;5.22;;;8.30;99.90;;;;;;6371773;22;20013;-91
2023/12/16 05:08:23;;;;;;;18.30;4.82;;;8.30;99.90;;;;;;6372098;22;20003;-91
2023/12/16 05:10:50;;;;;;;22.13;5.38;;;8.30;99.90;;;;;;6372103;22;20334;-91
2023/12/16 05:13:16;;;;;;;16.13;4.18;;;8.30;99.90;;;;;;6358951;22;20334;-91
2023/12/16 05:15:41;;;;;;;32.72;4.82;;;8.30;99.90;;;;;;6372780;22;20084;-92
2023/12/16 05:18:09;;;;;;;20.90;4.90;;;8.30;99.90;;;;;;6390014;22;20002;-92
2023/12/16 05:20:35;;;;;;;20.23;5.40;;;8.30;99.90;;;;;;6372949;22;20047;-92
2023/12/16 05:23:02;;;;;;;24.50;6.05;;;8.30;99.90;;;;;;6371601;22;20009;-91
2023/12/16 05:25:29;;;;;;;24.17;5.68;;;8.30;99.90;;;;;;6385020;22;19999;-91
2023/12/16 05:27:55;;;;;;;16.83;6.40;;;8.30;99.90;;;;;;6393825;22;20036;-91
2023/12/16 05:30:21;;;;;;;20.92;5.88;;;8.40;99.90;;;;;;6387076;22;19998;-91
2023/12/16 05:32:47;;;;;;;29.48;7.15;;;8.30;99.90;;;;;;6384164;22;20002;-89
2023/12/16 05:35:13;;;;;;;24.88;5.75;;;8.30;99.90;;;;;;6378471;22;20010;-93
2023/12/16 05:37:39;;;;;;;16.77;5.32;;;8.30;99.90;;;;;;6371139;22;19999;-91
2023/12/16 05:40:05;;;;;;;21.05;5.00;;;8.40;99.90;;;;;;6373186;22;19998;-90
2023/12/16 05:42:31;;;;;;;20.35;4.32;;;8.30;99.90;;;;;;6374884;22;19995;-91
2023/12/16 05:44:56;;;;;;;23.45;5.18;;;8.30;99.90;;;;;;6372426;22;20029;-91
2023/12/16 05:47:23;;;;;;;15.85;4.03;;;8.30;99.90;;;;;;6371563;22;20006;-90
2023/12/16 05:49:50;;;;;;;21.00;4.43;;;8.30;99.90;;;;;;6373689;22;20002;-92
2023/12/16 05:52:15;;;;;;;27.17;5.25;;;8.30;99.90;;;;;;6371460;22;20107;-91
2023/12/16 05:54:41;;;;;;;20.42;4.80;;;8.20;99.90;;;;;;6370290;22;20006;-91
2023/12/16 05:57:07;;;;;;;12.55;3.80;;;8.30;99.90;;;;;;6371367;22;20006;-91
2023/12/16 05:59:34;;;;;;;17.98;4.57;;;8.30;99.90;;;;;;6370845;22;20044;-92
2023/12/16 06:02:00;;;;;;;21.02;3.78;;;8.20;99.90;;;;;;6383199;22;20015;-91
2023/12/16 06:04:25;;;;;;;14.32;4.47;;;8.30;99.90;;;;;;6390412;22;20064;-91
2023/12/16 06:06:51;;;;;;;19.08;5.10;;;8.30;99.90;;;;;;6370780;22;20029;-90
2023/12/16 06:09:17;;;;;;;24.00;5.53;;;8.20;99.90;;;;;;6369889;22;20021;-90
2023/12/16 06:11:44;;;;;;;25.00;5.80;;;8.20;99.90;;;;;;6372121;22;19999;-90
2023/12/16 06:14:09;;;;;;;27.58;5.40;;;9.10;99.90;;;;;;6371556;22;20003;-90
2023/12/16 06:16:35;;;;;;;18.05;5.38;;;8.20;99.90;;;;;;6384927;22;20056;-90
2023/12/16 06:19:02;;;;;;;28.00;5.03;;;8.20;99.90;;;;;;6376704;22;20074;-91
2023/12/16 06:21:32;;;;;;;22.25;4.55;;;8.20;99.90;;;;;;6377657;22;20027;-91
2023/12/16 06:23:58;;;;;;;20.35;4.25;;;8.20;99.90;;;;;;6370767;22;20014;-91
2023/12/16 06:26:24;;;;;;;22.10;5.03;;;8.20;99.90;;;;;;6380858;22;20006;-92
2023/12/16 06:28:52;;;;;;;20.25;4.53;;;8.20;99.90;;;;;;6386010;22;20030;-91
2023/12/16 06:31:18;;;;;;;15.35;4.13;;;8.30;99.90;;;;;;6370949;22;20051;-90
2023/12/16 06:33:44;;;;;;;12.48;3.17;;;8.30;99.90;;;;;;6372007;22;19999;-90
2023/12/16 06:36:10;;;;;;;16.35;4.63;;;8.30;99.90;;;;;;6370426;22;19998;-92
2023/12/16 06:38:37;;;;;;;19.17;4.95;;;8.30;99.90;;;;;;6369861;22;20013;-90
2023/12/16 06:41:04;;;;;;;14.75;4.00;;;8.50;99.90;;;;;;6369067;22;20055;-89
2023/12/16 06:43:30;;;;;;;29.50;4.35;;;8.30;99.90;;;;;;6368683;22;20334;-90
2023/12/16 06:45:55;;;;;;;20.33;4.43;;;8.20;99.90;;;;;;6370783;22;20002;-91
2023/12/16 06:48:23;;;;;;;20.83;4.35;;;8.20;99.90;;;;;;6375097;22;20061;-89
2023/12/16 06:50:57;;;;;;;27.75;5.05;;;8.80;99.90;;;;;;6369589;22;20014;-91
2023/12/16 06:53:23;;;;;;;21.73;4.45;;;8.20;99.90;;;;;;6370061;22;20371;-91
2023/12/16 06:55:48;;;;;;;14.25;4.63;;;8.20;99.90;;;;;;6370075;22;19994;-89
2023/12/16 06:58:14;;;;;;;19.40;4.35;;;8.30;99.90;;;;;;6370048;22;20005;-90
2023/12/16 07:00:40;;;;;;;13.77;3.88;;;8.20;99.90;;;;;;6370484;22;20010;-90
2023/12/16 07:03:05;;;;;;;20.88;3.83;;;8.20;99.90;;;;;;6370873;22;20091;-91
2023/12/16 07:05:34;;;;;;;23.20;4.75;;;8.50;99.90;;;;;;6370477;22;19998;-90
2023/12/16 07:08:01;;;;;;;17.73;4.35;;;8.20;99.90;;;;;;6371205;22;20308;-90
2023/12/16 07:10:27;;;;;;;20.00;4.85;;;8.20;99.90;;;;;;6371442;22;20022;-90
2023/12/16 07:12:53;;;;;;;17.33;4.47;;;8.20;99.90;;;;;;6373983;22;20082;-90
2023/12/16 07:15:20;;;;;;;19.65;4.38;;;8.40;99.90;;;;;;6379870;22;20422;-90
2023/12/16 07:17:45;;;;;;;19.33;4.55;;;8.20;99.90;;;;;;6372344;22;20027;-90
2023/12/16 07:20:12;;;;;;;17.88;4.28;;;8.20;99.90;;;;;;6375019;22;20028;-90
2023/12/16 07:22:38;;;;;;;29.05;4.47;;;8.30;99.90;;;;;;6391614;22;19990;-91
2023/12/16 07:25:04;;;;;;;21.98;4.28;;;8.10;99.90;;;;;;6388360;22;20006;-90
2023/12/16 07:27:30;;;;;;;13.00;4.07;;;8.10;99.90;;;;;;6371254;22;20342;-90
2023/12/16 07:29:57;;;;;;;15.38;4.72;;;8.10;99.90;;;;;;6371080;22;20014;-91
2023/12/16 07:32:23;;;;;;;16.85;5.05;;;8.10;99.90;;;;;;6372213;22;19999;-90
2023/12/16 07:34:49;;;;;;;13.93;4.65;;;8.10;99.90;;;;;;6371400;22;19998;-91
2023/12/16 07:37:15;;;;;;;18.58;4.50;;;8.10;99.90;;;;;;6370340;22;19998;-91
2023/12/16 07:39:42;;;;;;;21.55;3.80;;;8.10;99.90;;;;;;6370734;22;20005;-91
2023/12/16 07:42:08;;;;;;;16.38;3.97;;;8.60;99.90;;;;;;6371815;22;20006;-90
2023/12/16 07:44:34;;;;;;;17.90;5.13;;;8.80;99.90;;;;;;6371185;22;19998;-90
2023/12/16 07:47:00;;;;;;;15.05;4.72;;;8.10;99.90;;;;;;6372488;22;20025;-90
2023/12/16 07:49:28;;;;;;;21.13;5.13;;;8.10;99.90;;;;;;6386465;22;19998;-91
2023/12/16 07:51:54;;;;;;;20.30;5.20;;;8.00;99.90;;;;;;6371114;22;20017;-90
2023/12/16 07:54:22;;;;;;;17.25;5.10;;;8.90;99.90;;;;;;6370936;22;20459;-90
2023/12/16 07:56:48;;;;;;;21.15;4.55;;;8.10;99.90;;;;;;6372752;22;19994;-90
2023/12/16 07:59:14;;;;;;;25.27;6.15;;;8.00;99.90;;;;;;6373077;22;20009;-90
2023/12/16 08:01:39;;;;;;;23.70;5.10;;;8.70;99.90;;;;;;6372044;22;20078;-90
2023/12/16 08:04:05;;;;;;;27.83;5.82;;;8.10;99.90;;;;;;6375123;22;20002;-91
2023/12/16 08:06:31;;;;;;;17.88;4.22;;;8.00;99.90;;;;;;6374623;22;20015;-91
2023/12/16 08:08:56;;;;;;;17.83;4.45;;;8.80;99.90;;;;;;6374066;22;20426;-91
2023/12/16 08:11:22;;;;;;;23.77;4.55;;;9.00;99.90;;;;;;6374449;22;20371;-90
2023/12/16 08:13:48;;;;;;;20.50;4.68;;;8.00;99.90;;;;;;6379368;22;20010;-91
2023/12/16 08:16:13;;;;;;;19.10;4.35;;;8.70;99.90;;;;;;6385995;22;20194;-89
2023/12/16 08:18:40;;;;;;;23.15;4.68;;;8.00;99.90;;;;;;6372464;22;19998;-90
2023/12/16 08:21:05;;;;;;;18.15;4.13;;;8.00;99.90;;;;;;6371997;22;20003;-90
2023/12/16 08:23:31;;;;;;;15.48;3.85;;;8.00;99.90;;;;;;6373676;22;20037;-91
2023/12/16 08:25:59;;;;;;;26.38;5.28;;;9.10;99.90;;;;;;6373087;22;20003;-91
2023/12/16 08:28:24;;;;;;;21.60;5.00;;;8.10;99.90;;;;;;6376998;22;20036;-90
2023/12/16 08:30:52;;;;;;;28.48;4.97;;;9.10;99.90;;;;;;6394112;22;20002;-90
2023/12/16 08:33:17;;;;;;;19.08;5.45;;;8.10;99.90;;;;;;6391664;22;20014;-90
2023/12/16 08:35:44;;;;;;;13.57;4.05;;;8.20;99.90;;;;;;6392409;22;20086;-92
2023/12/16 08:38:11;;;;;;;24.77;6.53;;;8.20;99.90;;;;;;6395899;22;20002;-90
2023/12/16 08:40:37;;;;;;;15.77;4.68;;;8.20;99.90;;;;;;6352765;22;20056;-92
2023/12/16 08:43:02;;;;;;;19.23;4.50;;;8.20;99.90;;;;;;6393193;22;19998;-90
2023/12/16 08:45:28;;;;;;;27.63;5.15;;;8.20;99.90;;;;;;6387475;22;20037;-90
2023/12/16 08:47:53;;;;;;;17.27;4.32;;;8.30;99.90;;;;;;6373665;22;20449;-90
2023/12/16 08:50:22;;;;;;;27.42;4.80;;;8.30;99.90;;;;;;6366644;22;20330;-88
2023/12/16 08:52:48;;;;;;;16.73;4.97;;;8.30;99.90;;;;;;6367315;22;20010;-91
2023/12/16 08:55:13;;;;;;;13.70;4.07;;;8.30;99.90;;;;;;6368879;22;20061;-89
2023/12/16 08:57:39;;;;;;;18.80;4.40;;;8.30;99.90;;;;;;6371383;22;19998;-90
2023/12/16 09:00:05;;;;;;;24.13;5.03;;;8.40;99.90;;;;;;6373135;22;19995;-89
2023/12/16 09:02:35;;;;;;;21.95;6.20;;;8.40;99.90;;;;;;6370970;22;20090;-91
2023/12/16 09:05:02;;;;;;;16.85;4.88;;;8.40;99.90;;;;;;6372636;22;20070;-91
2023/12/16 09:07:27;;;;;;;20.48;5.05;;;8.40;99.90;;;;;;6380196;22;19994;-91
2023/12/16 09:09:53;;;;;;;18.52;4.43;;;8.50;99.90;;;;;;6391362;22;20049;-90
2023/12/16 09:12:18;;;;;;;27.15;5.57;;;8.50;99.90;;;;;;6396813;22;20013;-92
2023/12/16 09:14:44;;;;;;;27.58;7.20;;;8.60;99.90;;;;;;6378460;22;20014;-92
2023/12/16 09:17:10;;;;;;;23.38;5.22;;;9.30;99.90;;;;;;6374854;22;20018;-92
2023/12/16 09:19:36;;;;;;;20.77;5.50;;;8.60;99.90;;;;;;6373496;22;19999;-88
2023/12/16 09:22:01;;;;;;;31.77;5.32;;;8.60;99.90;;;;;;6370948;22;20006;-86
2023/12/16 09:24:27;;;;;;;16.00;5.28;;;8.70;99.90;;;;;;6368915;22;20418;-85
2023/12/16 09:26:52;;;;;;;38.40;5.53;;;8.70;99.90;;;;;;6370486;22;20014;-86
2023/12/16 09:29:18;;;;;;;24.15;6.05;;;8.70;99.90;;;;;;6370258;22;20326;-87
2023/12/16 09:31:44;;;;;;;24.67;5.88;;;8.60;99.90;;;;;;6368723;22;20077;-87
2023/12/16 09:34:10;;;;;;;32.78;7.43;;;8.60;99.90;;;;;;6370784;22;20017;-85
2023/12/16 09:36:37;;;;;;;41.78;7.25;;;8.90;99.90;;;;;;6371315;22;19998;-90
2023/12/16 09:39:04;;;;;;;27.58;6.07;;;8.60;99.90;;;;;;6367864;22;20009;-88
2023/12/16 09:41:31;;;;;;;33.30;7.90;;;8.60;99.90;;;;;;6370245;22;20043;-87
2023/12/16 09:44:08;;;;;;;27.52;7.85;;;8.60;99.90;;;;;;6372687;22;20002;-92
2023/12/16 09:46:37;;;;;;;35.97;9.00;;;9.00;99.90;;;;;;6371203;22;20034;-88
2023/12/16 09:49:03;;;;;;;38.92;8.20;;;8.70;99.90;;;;;;6373805;22;19995;-92
2023/12/16 09:51:29;;;;;;;37.50;8.38;;;8.70;99.90;;;;;;6373592;22;20447;-89
2023/12/16 09:53:56;;;;;;;37.00;8.23;;;8.70;99.90;;;;;;6378658;22;20063;-91
2023/12/16 09:56:22;;;;;;;21.13;6.80;;;8.60;99.90;;;;;;6370254;22;20081;-87
2023/12/16 09:58:51;;;;;;;27.63;7.43;;;8.70;99.90;;;;;;6370936;22;19998;-92
2023/12/16 10:01:17;;;;;;;39.10;7.57;;;8.70;99.90;;;;;;6382172;22;20013;-90
2023/12/16 10:03:45;;;;;;;26.35;7.97;;;8.80;99.90;;;;;;6394496;22;20041;-92
2023/12/16 10:06:12;;;;;;;32.92;8.52;;;8.80;99.90;;;;;;6389157;22;20376;-92
2023/12/16 10:08:40;;;;;;;31.17;7.80;;;8.80;99.90;;;;;;6375473;22;20064;-92
2023/12/16 10:11:07;;;;;;;40.65;9.23;;;8.80;99.90;;;;;;6390032;22;20020;-90
2023/12/16 10:13:56;;;;;;;34.45;7.80;;;8.80;99.90;;;;;;6373900;22;20024;-90
2023/12/16 10:16:23;;;;;;;28.98;7.53;;;8.90;99.90;;;;;;6368832;22;20336;-89
2023/12/16 10:18:52;;;;;;;27.80;8.50;;;8.80;99.90;;;;;;6366724;22;20005;-88
2023/12/16 10:21:24;;;;;;;32.10;7.68;;;8.90;99.90;;;;;;6366838;22;20002;-90
2023/12/16 10:23:51;;;;;;;28.88;9.90;;;8.90;99.90;;;;;;6377818;22;20086;-86
2023/12/16 10:26:17;;;;;;;27.35;8.27;;;8.90;99.90;;;;;;6372573;22;20426;-83
2023/12/16 10:28:49;;;;;;;44.63;10.23;;;8.90;99.90;;;;;;6367177;22;20029;-89
2023/12/16 10:31:21;;;;;;;27.92;8.07;;;8.90;99.90;;;;;;6369744;22;20032;-92
2023/12/16 10:33:47;;;;;;;41.65;10.25;;;8.90;99.90;;;;;;6376531;22;20002;-94
2023/12/16 10:36:14;;;;;;;32.08;9.50;;;9.00;99.90;;;;;;6373630;22;20006;-92
2023/12/16 10:38:40;;;;;;;32.92;9.52;;;9.00;99.90;;;;;;6373584;22;20035;-91
2023/12/16 10:41:06;;;;;;;30.52;9.55;;;9.60;99.90;;;;;;6372137;22;20003;-91
2023/12/16 10:43:33;;;;;;;38.72;12.45;;;9.00;99.90;;;;;;6372572;22;20051;-92
2023/12/16 10:46:05;;;;;;;37.08;10.02;;;8.90;99.90;;;;;;6373036;22;20011;-92
2023/12/16 10:48:33;;;;;;;38.85;10.30;;;9.00;99.90;;;;;;6371748;22;20010;-93
2023/12/16 10:51:04;;;;;;;36.67;10.10;;;9.00;99.90;;;;;;6377554;22;20070;-92
2023/12/16 10:53:43;;;;;;;;;;;9.00;99.90;;;;;;6376128;22;20430;-92
2023/12/16 10:56:24;;;;;;;37.47;9.52;;;9.00;99.90;;;;;;6387083;22;19912;-91
2023/12/16 10:59:22;;;;;;;33.95;11.35;;;8.90;99.90;;;;;;6367981;22;20376;-90
2023/12/16 11:01:57;;;;;;;39.45;11.82;;;9.00;99.90;;;;;;6353167;22;20018;-92
2023/12/16 11:04:32;;;;;;;53.78;12.27;;;9.00;99.90;;;;;;6373326;22;20002;-93
2023/12/16 11:07:12;;;;;;;30.77;12.50;;;8.90;99.90;;;;;;6382803;22;20449;-92
2023/12/16 11:09:40;;;;;;;35.03;12.00;;;9.00;99.90;;;;;;6378876;22;20069;-93
2023/12/16 11:12:07;;;;;;;40.97;11.32;;;9.00;99.90;;;;;;6395413;22;19991;-93
2023/12/16 11:14:35;;;;;;;33.35;11.15;;;9.00;99.90;;;;;;6394682;22;20005;-93
2023/12/16 11:17:17;;;;;;;41.70;12.18;;;9.00;99.90;;;;;;6376977;22;20002;-94
2023/12/16 11:19:45;;;;;;;42.63;11.60;;;9.00;99.90;;;;;;6389630;22;19999;-92
2023/12/16 11:22:15;;;;;;;27.67;11.43;;;9.10;99.90;;;;;;6393915;22;20006;-91
2023/12/16 11:24:41;;;;;;;40.15;12.13;;;9.10;99.90;;;;;;6382944;22;20026;-93
2023/12/16 11:27:07;;;;;;;26.98;11.20;;;9.10;99.90;;;;;;6382078;22;20022;-91
2023/12/16 11:29:34;;;;;;;34.28;11.93;;;9.20;99.90;;;;;;6371543;22;20003;-92
2023/12/16 11:32:01;;;;;;;45.03;12.85;;;9.20;99.90;;;;;;6371480;22;20002;-91
2023/12/16 11:34:47;;;;;;;29.45;10.57;;;9.20;99.90;;;;;;6389544;22;20018;-90
2023/12/16 11:37:13;;;;;;;40.72;11.20;;;9.20;99.90;;;;;;6369781;22;19986;-93
2023/12/16 11:39:40;;;;;;;40.08;10.48;;;9.30;99.90;;;;;;6393155;22;19995;-92
2023/12/16 11:42:11;;;;;;;43.97;11.38;;;9.30;99.90;;;;;;6396706;22;19991;-91
2023/12/16 11:44:56;;;;;;;23.20;10.05;;;9.30;99.90;;;;;;6376243;22;20010;-93
2023/12/16 11:47:23;;;;;;;27.23;10.80;;;9.30;99.90;;;;;;6391395;22;20050;-93
2023/12/16 11:49:50;;;;;;;25.55;9.90;;;9.40;99.90;;;;;;6378131;22;20034;-92
2023/12/16 11:52:22;;;;;;;21.08;10.20;;;9.30;99.90;;;;;;6372873;22;20008;-92
2023/12/16 11:54:51;;;;;;;27.08;10.20;;;9.80;99.90;;;;;;6369859;22;20024;-91
2023/12/16 11:57:21;;;;;;;28.33;10.63;;;9.30;99.90;;;;;;6370806;22;19998;-92
2023/12/16 11:59:47;;;;;;;22.43;10.73;;;9.40;99.90;;;;;;6371142;22;20002;-92
2023/12/16 12:02:13;;;;;;;20.55;10.40;;;10.20;99.90;;;;;;6372359;22;20079;-91
2023/12/16 12:04:40;;;;;;;32.90;11.05;;;9.40;99.90;;;;;;6371655;22;20003;-93
2023/12/16 12:07:06;;;;;;;17.95;9.18;;;9.40;99.90;;;;;;6378700;22;20010;-91
2023/12/16 12:09:32;;;;;;;20.50;9.25;;;9.40;99.90;;;;;;6372276;22;19998;-93
2023/12/16 12:11:58;;;;;;;21.65;9.27;;;9.40;99.90;;;;;;6344412;22;20006;-91
2023/12/16 12:14:26;;;;;;;17.48;8.95;;;10.10;99.90;;;;;;6369406;22;19994;-91
2023/12/16 12:16:54;;;;;;;19.80;8.82;;;9.40;99.90;;;;;;6368430;22;20083;-92
2023/12/16 12:19:21;;;;;;;15.85;8.20;;;9.40;99.90;;;;;;6373393;22;20045;-93
2023/12/16 12:21:47;;;;;;;18.67;9.57;;;9.40;99.90;;;;;;6370856;22;20014;-92
2023/12/16 12:24:27;;;;;;;17.63;7.95;;;9.40;99.90;;;;;;6372985;22;19998;-94
2023/12/16 12:26:54;;;;;;;20.90;9.32;;;9.40;99.90;;;;;;6379404;22;20018;-94
2023/12/16 12:29:21;;;;;;;21.80;9.15;;;9.30;99.90;;;;;;6377822;22;20017;-92
2023/12/16 12:31:48;;;;;;;15.98;9.43;;;9.30;99.90;;;;;;6372208;22;20023;-93
2023/12/16 12:34:19;;;;;;;23.35;10.27;;;9.30;99.90;;;;;;6372071;22;20010;-92
2023/12/16 12:36:54;;;;;;;16.85;9.55;;;9.30;99.90;;;;;;6371763;22;20033;-93
2023/12/16 12:39:19;;;;;;;15.15;9.80;;;9.40;99.90;;;;;;6346209;22;20067;-92
2023/12/16 12:42:02;;;;;;;19.73;9.55;;;9.80;99.90;;;;;;6391054;22;20006;-93
2023/12/16 12:44:28;;;;;;;21.08;9.57;;;9.40;99.90;;;;;;6396234;22;19987;-94
2023/12/16 12:46:59;;;;;;;16.60;9.82;;;9.40;99.90;;;;;;6387394;22;20471;-92